首页
METAR-TAF:

METAR-TAF

机场 :

聖弗朗西斯, 堪薩斯州, 美国

纬度: 39-45-40N, 经度: 101-47-45W, 海拔: 1040米

当前天气观测

该预报发布于19分钟前的04:35 UTC
风速8节,风向西南
温度 2°C
湿度 69%
气压 1015 hPa
能見度: 16.1公里
天空无云

METAR: KSYF 190435Z AUTO 23008KT 10SM CLR 02/M03 A2998 RMK AO2 T00171028 PWINO

时间: 22:54 (04:54 UTC)


TAF: 丢失

超过4000个机场的气象观测和天气预报(METAR&TAF报告)。

可查询的气象台以黄色和红色小点在地图上表示。

将鼠标移到小点上方,可查看气象台名称。

然后点击查看天气观测和预报。

如需切换地图:点击带黑十字的绿色按钮放大地图;点击带横线的绿色按钮缩小地图;或者点击绿色箭头查看邻近地区的地图。


METAR-TAF: